sensor_id;sensor_type;location;lat;lon;timestamp;temperature;humidity
56861;DHT22;42744;51.094;3.490;2023-05-15T00:01:01;9.60;99.90
56861;DHT22;42744;51.094;3.490;2023-05-15T00:03:27;9.50;99.90
56861;DHT22;42744;51.094;3.490;2023-05-15T00:05:53;9.60;99.90
56861;DHT22;42744;51.094;3.490;2023-05-15T00:08:19;9.50;99.90
56861;DHT22;42744;51.094;3.490;2023-05-15T00:10:45;9.50;99.90
56861;DHT22;42744;51.094;3.490;2023-05-15T00:13:11;9.40;99.90
56861;DHT22;42744;51.094;3.490;2023-05-15T00:15:37;9.40;99.90
56861;DHT22;42744;51.094;3.490;2023-05-15T00:18:03;9.40;99.90
56861;DHT22;42744;51.094;3.490;2023-05-15T00:20:29;9.40;99.90
56861;DHT22;42744;51.094;3.490;2023-05-15T00:22:55;9.40;99.90
56861;DHT22;42744;51.094;3.490;2023-05-15T00:25:27;9.40;99.90
56861;DHT22;42744;51.094;3.490;2023-05-15T00:27:53;9.40;99.90
56861;DHT22;42744;51.094;3.490;2023-05-15T00:30:19;9.30;99.90
56861;DHT22;42744;51.094;3.490;2023-05-15T00:32:45;9.30;99.90
56861;DHT22;42744;51.094;3.490;2023-05-15T00:35:11;9.30;99.90
56861;DHT22;42744;51.094;3.490;2023-05-15T00:37:37;9.20;99.90
56861;DHT22;42744;51.094;3.490;2023-05-15T00:40:04;9.20;99.90
56861;DHT22;42744;51.094;3.490;2023-05-15T00:42:31;9.20;99.90
56861;DHT22;42744;51.094;3.490;2023-05-15T00:44:57;9.20;99.90
56861;DHT22;42744;51.094;3.490;2023-05-15T00:47:25;9.20;99.90
56861;DHT22;42744;51.094;3.490;2023-05-15T00:49:52;9.20;99.90
56861;DHT22;42744;51.094;3.490;2023-05-15T00:52:19;9.20;99.90
56861;DHT22;42744;51.094;3.490;2023-05-15T00:54:45;9.20;99.90
56861;DHT22;42744;51.094;3.490;2023-05-15T00:57:11;9.20;99.90
56861;DHT22;42744;51.094;3.490;2023-05-15T00:59:38;9.20;99.90
56861;DHT22;42744;51.094;3.490;2023-05-15T01:02:05;9.20;99.90
56861;DHT22;42744;51.094;3.490;2023-05-15T01:04:31;9.20;99.90
56861;DHT22;42744;51.094;3.490;2023-05-15T01:06:57;9.20;99.90
56861;DHT22;42744;51.094;3.490;2023-05-15T01:09:23;9.20;99.90
56861;DHT22;42744;51.094;3.490;2023-05-15T01:11:52;9.30;99.90
56861;DHT22;42744;51.094;3.490;2023-05-15T01:14:19;9.30;99.90
56861;DHT22;42744;51.094;3.490;2023-05-15T01:16:45;9.30;99.90
56861;DHT22;42744;51.094;3.490;2023-05-15T01:19:11;9.30;99.90
56861;DHT22;42744;51.094;3.490;2023-05-15T01:29:36;9.40;99.90
56861;DHT22;42744;51.094;3.490;2023-05-15T01:32:11;9.40;99.90
56861;DHT22;42744;51.094;3.490;2023-05-15T01:34:56;9.40;99.90
56861;DHT22;42744;51.094;3.490;2023-05-15T01:37:25;9.50;99.90
56861;DHT22;42744;51.094;3.490;2023-05-15T01:39:59;9.60;99.90
56861;DHT22;42744;51.094;3.490;2023-05-15T01:42:29;9.60;99.90
56861;DHT22;42744;51.094;3.490;2023-05-15T01:44:56;9.60;99.90
56861;DHT22;42744;51.094;3.490;2023-05-15T01:47:31;9.60;99.90
56861;DHT22;42744;51.094;3.490;2023-05-15T01:50:01;9.60;99.90
56861;DHT22;42744;51.094;3.490;2023-05-15T01:52:32;9.60;99.90
56861;DHT22;42744;51.094;3.490;2023-05-15T01:55:01;9.60;99.90
56861;DHT22;42744;51.094;3.490;2023-05-15T01:57:27;9.70;99.90
56861;DHT22;42744;51.094;3.490;2023-05-15T01:59:56;9.70;99.90
56861;DHT22;42744;51.094;3.490;2023-05-15T02:02:23;9.70;99.90
56861;DHT22;42744;51.094;3.490;2023-05-15T02:04:54;9.70;99.90
56861;DHT22;42744;51.094;3.490;2023-05-15T02:07:21;9.70;99.90
56861;DHT22;42744;51.094;3.490;2023-05-15T02:09:47;9.80;99.90
56861;DHT22;42744;51.094;3.490;2023-05-15T02:12:14;9.80;99.90
56861;DHT22;42744;51.094;3.490;2023-05-15T02:14:42;9.80;99.90
56861;DHT22;42744;51.094;3.490;2023-05-15T02:17:08;9.80;99.90
56861;DHT22;42744;51.094;3.490;2023-05-15T02:19:34;9.90;99.90
56861;DHT22;42744;51.094;3.490;2023-05-15T02:22:01;9.90;99.90
56861;DHT22;42744;51.094;3.490;2023-05-15T02:24:27;9.90;99.90
56861;DHT22;42744;51.094;3.490;2023-05-15T02:38:19;10.00;99.90
56861;DHT22;42744;51.094;3.490;2023-05-15T02:40:46;10.00;99.90
56861;DHT22;42744;51.094;3.490;2023-05-15T02:43:14;10.00;99.90
56861;DHT22;42744;51.094;3.490;2023-05-15T02:45:44;10.00;99.90
56861;DHT22;42744;51.094;3.490;2023-05-15T02:48:12;10.00;99.90
56861;DHT22;42744;51.094;3.490;2023-05-15T02:50:38;10.00;99.90
56861;DHT22;42744;51.094;3.490;2023-05-15T02:53:05;10.00;99.90
56861;DHT22;42744;51.094;3.490;2023-05-15T02:55:35;10.10;99.90
56861;DHT22;42744;51.094;3.490;2023-05-15T02:58:02;10.10;99.90
56861;DHT22;42744;51.094;3.490;2023-05-15T03:00:28;10.10;99.90
56861;DHT22;42744;51.094;3.490;2023-05-15T03:02:54;10.10;99.90
56861;DHT22;42744;51.094;3.490;2023-05-15T03:05:20;10.10;99.90
56861;DHT22;42744;51.094;3.490;2023-05-15T03:07:46;10.10;99.90
56861;DHT22;42744;51.094;3.490;2023-05-15T03:10:13;10.10;99.90
56861;DHT22;42744;51.094;3.490;2023-05-15T03:12:39;10.20;99.90
56861;DHT22;42744;51.094;3.490;2023-05-15T03:15:05;10.20;99.90
56861;DHT22;42744;51.094;3.490;2023-05-15T03:17:32;10.20;99.90
56861;DHT22;42744;51.094;3.490;2023-05-15T03:19:58;10.20;99.90
56861;DHT22;42744;51.094;3.490;2023-05-15T03:22:24;10.30;99.90
56861;DHT22;42744;51.094;3.490;2023-05-15T03:24:50;10.30;99.90
56861;DHT22;42744;51.094;3.490;2023-05-15T03:27:16;10.30;99.90
56861;DHT22;42744;51.094;3.490;2023-05-15T03:29:42;10.30;99.90
56861;DHT22;42744;51.094;3.490;2023-05-15T03:32:09;10.40;99.90
56861;DHT22;42744;51.094;3.490;2023-05-15T03:34:35;10.40;99.90
56861;DHT22;42744;51.094;3.490;2023-05-15T03:37:01;10.40;99.90
56861;DHT22;42744;51.094;3.490;2023-05-15T03:39:27;10.40;99.90
56861;DHT22;42744;51.094;3.490;2023-05-15T03:41:53;10.40;99.90
56861;DHT22;42744;51.094;3.490;2023-05-15T03:44:21;10.50;99.90
56861;DHT22;42744;51.094;3.490;2023-05-15T03:46:47;10.50;99.90
56861;DHT22;42744;51.094;3.490;2023-05-15T03:49:13;10.50;99.90
56861;DHT22;42744;51.094;3.490;2023-05-15T03:51:39;10.60;99.90
56861;DHT22;42744;51.094;3.490;2023-05-15T03:54:05;10.60;99.90
56861;DHT22;42744;51.094;3.490;2023-05-15T03:56:32;10.70;99.90
56861;DHT22;42744;51.094;3.490;2023-05-15T03:58:58;10.70;99.90
56861;DHT22;42744;51.094;3.490;2023-05-15T04:01:24;10.70;99.90
56861;DHT22;42744;51.094;3.490;2023-05-15T04:03:50;10.70;99.90
56861;DHT22;42744;51.094;3.490;2023-05-15T04:06:16;10.70;99.90
56861;DHT22;42744;51.094;3.490;2023-05-15T04:08:42;10.80;99.90
56861;DHT22;42744;51.094;3.490;2023-05-15T04:11:09;10.80;99.90
56861;DHT22;42744;51.094;3.490;2023-05-15T04:13:36;10.80;99.90
56861;DHT22;42744;51.094;3.490;2023-05-15T04:16:02;10.80;99.90
56861;DHT22;42744;51.094;3.490;2023-05-15T04:18:29;10.80;99.90
56861;DHT22;42744;51.094;3.490;2023-05-15T04:20:55;10.80;99.90
56861;DHT22;42744;51.094;3.490;2023-05-15T04:23:21;10.80;99.90
56861;DHT22;42744;51.094;3.490;2023-05-15T04:25:47;10.80;99.90
56861;DHT22;42744;51.094;3.490;2023-05-15T04:28:14;10.80;99.90
56861;DHT22;42744;51.094;3.490;2023-05-15T04:30:40;10.80;99.90
56861;DHT22;42744;51.094;3.490;2023-05-15T04:33:07;10.80;99.90
56861;DHT22;42744;51.094;3.490;2023-05-15T04:35:32;10.80;99.90
56861;DHT22;42744;51.094;3.490;2023-05-15T04:37:58;10.90;99.90
56861;DHT22;42744;51.094;3.490;2023-05-15T04:40:25;10.90;99.90
56861;DHT22;42744;51.094;3.490;2023-05-15T04:42:50;10.90;99.90
56861;DHT22;42744;51.094;3.490;2023-05-15T04:45:16;10.90;99.90
56861;DHT22;42744;51.094;3.490;2023-05-15T04:47:43;10.90;99.90
56861;DHT22;42744;51.094;3.490;2023-05-15T04:50:09;10.90;99.90
56861;DHT22;42744;51.094;3.490;2023-05-15T04:52:35;10.90;99.90
56861;DHT22;42744;51.094;3.490;2023-05-15T04:55:01;10.90;99.90
56861;DHT22;42744;51.094;3.490;2023-05-15T04:57:28;10.90;99.90
56861;DHT22;42744;51.094;3.490;2023-05-15T04:59:55;10.90;99.90
56861;DHT22;42744;51.094;3.490;2023-05-15T05:02:23;10.90;99.90
56861;DHT22;42744;51.094;3.490;2023-05-15T05:04:50;11.00;99.90
56861;DHT22;42744;51.094;3.490;2023-05-15T05:07:17;10.90;99.90
56861;DHT22;42744;51.094;3.490;2023-05-15T05:09:43;10.90;99.90
56861;DHT22;42744;51.094;3.490;2023-05-15T05:12:10;10.90;99.90
56861;DHT22;42744;51.094;3.490;2023-05-15T05:14:36;10.90;99.90
56861;DHT22;42744;51.094;3.490;2023-05-15T05:17:05;10.90;99.90
56861;DHT22;42744;51.094;3.490;2023-05-15T05:19:31;10.90;99.90
56861;DHT22;42744;51.094;3.490;2023-05-15T05:21:57;10.90;99.90
56861;DHT22;42744;51.094;3.490;2023-05-15T05:24:31;10.90;99.90
56861;DHT22;42744;51.094;3.490;2023-05-15T05:27:00;10.90;99.90
56861;DHT22;42744;51.094;3.490;2023-05-15T05:29:29;10.90;99.90
56861;DHT22;42744;51.094;3.490;2023-05-15T05:31:56;10.90;99.90
56861;DHT22;42744;51.094;3.490;2023-05-15T05:34:22;10.90;99.90
56861;DHT22;42744;51.094;3.490;2023-05-15T05:36:49;11.00;99.90
56861;DHT22;42744;51.094;3.490;2023-05-15T05:39:15;11.00;99.90
56861;DHT22;42744;51.094;3.490;2023-05-15T05:41:42;11.00;99.90
56861;DHT22;42744;51.094;3.490;2023-05-15T05:44:08;11.10;99.90
56861;DHT22;42744;51.094;3.490;2023-05-15T05:46:34;11.10;99.90
56861;DHT22;42744;51.094;3.490;2023-05-15T05:49:00;11.10;99.90
56861;DHT22;42744;51.094;3.490;2023-05-15T05:51:26;11.10;99.90
56861;DHT22;42744;51.094;3.490;2023-05-15T05:53:52;11.10;99.90
56861;DHT22;42744;51.094;3.490;2023-05-15T05:56:18;11.10;99.90
56861;DHT22;42744;51.094;3.490;2023-05-15T05:58:45;11.20;99.90
56861;DHT22;42744;51.094;3.490;2023-05-15T06:01:10;11.20;99.90
56861;DHT22;42744;51.094;3.490;2023-05-15T06:03:37;11.20;99.90
56861;DHT22;42744;51.094;3.490;2023-05-15T06:06:04;11.20;99.90
56861;DHT22;42744;51.094;3.490;2023-05-15T06:08:30;11.10;99.90
56861;DHT22;42744;51.094;3.490;2023-05-15T06:10:57;11.10;99.90
56861;DHT22;42744;51.094;3.490;2023-05-15T06:13:23;11.10;99.90
56861;DHT22;42744;51.094;3.490;2023-05-15T06:15:50;11.10;99.90
56861;DHT22;42744;51.094;3.490;2023-05-15T06:18:16;11.20;99.90
56861;DHT22;42744;51.094;3.490;2023-05-15T06:20:42;11.20;99.90
56861;DHT22;42744;51.094;3.490;2023-05-15T06:23:08;11.30;99.90
56861;DHT22;42744;51.094;3.490;2023-05-15T06:25:38;11.30;99.90
56861;DHT22;42744;51.094;3.490;2023-05-15T06:28:04;11.40;99.90
56861;DHT22;42744;51.094;3.490;2023-05-15T06:30:30;11.40;99.90
56861;DHT22;42744;51.094;3.490;2023-05-15T06:32:56;11.40;99.90
56861;DHT22;42744;51.094;3.490;2023-05-15T06:35:22;11.40;99.90
56861;DHT22;42744;51.094;3.490;2023-05-15T06:37:49;11.40;99.90
56861;DHT22;42744;51.094;3.490;2023-05-15T06:40:16;11.40;99.90
56861;DHT22;42744;51.094;3.490;2023-05-15T06:42:42;11.50;99.90
56861;DHT22;42744;51.094;3.490;2023-05-15T06:45:08;11.50;99.90
56861;DHT22;42744;51.094;3.490;2023-05-15T06:47:35;11.60;99.90
56861;DHT22;42744;51.094;3.490;2023-05-15T06:50:01;11.60;99.90
56861;DHT22;42744;51.094;3.490;2023-05-15T06:52:27;11.70;99.90
56861;DHT22;42744;51.094;3.490;2023-05-15T06:54:53;11.70;99.90
56861;DHT22;42744;51.094;3.490;2023-05-15T06:57:19;11.80;99.90
56861;DHT22;42744;51.094;3.490;2023-05-15T06:59:45;11.80;99.90
56861;DHT22;42744;51.094;3.490;2023-05-15T07:02:11;11.80;99.90
56861;DHT22;42744;51.094;3.490;2023-05-15T07:04:37;11.80;99.90
56861;DHT22;42744;51.094;3.490;2023-05-15T07:07:03;11.90;99.90
56861;DHT22;42744;51.094;3.490;2023-05-15T07:09:29;11.90;99.90
56861;DHT22;42744;51.094;3.490;2023-05-15T07:11:55;11.90;99.90
56861;DHT22;42744;51.094;3.490;2023-05-15T07:14:21;11.90;99.90
56861;DHT22;42744;51.094;3.490;2023-05-15T07:16:47;12.00;99.90
56861;DHT22;42744;51.094;3.490;2023-05-15T07:19:16;12.00;99.90
56861;DHT22;42744;51.094;3.490;2023-05-15T07:21:43;12.00;99.90
56861;DHT22;42744;51.094;3.490;2023-05-15T07:24:10;12.00;99.90
56861;DHT22;42744;51.094;3.490;2023-05-15T07:26:35;12.10;99.90
56861;DHT22;42744;51.094;3.490;2023-05-15T07:29:01;12.10;99.90
56861;DHT22;42744;51.094;3.490;2023-05-15T07:31:29;12.10;99.90
56861;DHT22;42744;51.094;3.490;2023-05-15T07:33:56;12.20;99.90
56861;DHT22;42744;51.094;3.490;2023-05-15T07:36:22;12.10;99.90
56861;DHT22;42744;51.094;3.490;2023-05-15T07:38:48;12.20;99.90
56861;DHT22;42744;51.094;3.490;2023-05-15T07:41:14;12.20;99.90
56861;DHT22;42744;51.094;3.490;2023-05-15T07:43:40;12.20;99.90
56861;DHT22;42744;51.094;3.490;2023-05-15T07:46:06;12.20;99.90
56861;DHT22;42744;51.094;3.490;2023-05-15T07:48:32;12.30;99.90
56861;DHT22;42744;51.094;3.490;2023-05-15T07:50:58;12.20;99.90
56861;DHT22;42744;51.094;3.490;2023-05-15T07:53:24;12.20;99.90
56861;DHT22;42744;51.094;3.490;2023-05-15T07:55:50;12.20;99.90
56861;DHT22;42744;51.094;3.490;2023-05-15T07:58:16;12.20;99.90
56861;DHT22;42744;51.094;3.490;2023-05-15T08:00:42;12.30;99.90
56861;DHT22;42744;51.094;3.490;2023-05-15T08:03:10;12.30;99.90
56861;DHT22;42744;51.094;3.490;2023-05-15T08:05:36;12.30;99.90
56861;DHT22;42744;51.094;3.490;2023-05-15T08:08:02;12.30;99.90
56861;DHT22;42744;51.094;3.490;2023-05-15T08:10:28;12.30;99.90
56861;DHT22;42744;51.094;3.490;2023-05-15T08:12:54;12.30;99.90
56861;DHT22;42744;51.094;3.490;2023-05-15T08:15:20;12.30;99.90
56861;DHT22;42744;51.094;3.490;2023-05-15T08:17:47;12.30;99.90
56861;DHT22;42744;51.094;3.490;2023-05-15T08:20:13;12.40;99.90
56861;DHT22;42744;51.094;3.490;2023-05-15T08:22:38;12.40;99.90
56861;DHT22;42744;51.094;3.490;2023-05-15T08:25:05;12.50;99.90
56861;DHT22;42744;51.094;3.490;2023-05-15T08:27:31;12.50;99.90
56861;DHT22;42744;51.094;3.490;2023-05-15T08:29:57;12.50;99.90
56861;DHT22;42744;51.094;3.490;2023-05-15T08:32:24;12.50;99.90
56861;DHT22;42744;51.094;3.490;2023-05-15T08:34:50;12.60;99.90
56861;DHT22;42744;51.094;3.490;2023-05-15T08:37:16;12.60;99.90
56861;DHT22;42744;51.094;3.490;2023-05-15T08:39:42;12.60;99.90
56861;DHT22;42744;51.094;3.490;2023-05-15T08:42:23;12.60;99.90
56861;DHT22;42744;51.094;3.490;2023-05-15T08:44:49;12.60;99.90
56861;DHT22;42744;51.094;3.490;2023-05-15T08:47:17;12.70;99.90
56861;DHT22;42744;51.094;3.490;2023-05-15T08:50:01;12.70;99.90
56861;DHT22;42744;51.094;3.490;2023-05-15T08:52:31;12.70;99.90
56861;DHT22;42744;51.094;3.490;2023-05-15T08:54:58;12.70;99.90
56861;DHT22;42744;51.094;3.490;2023-05-15T08:57:25;12.70;99.90
56861;DHT22;42744;51.094;3.490;2023-05-15T08:59:51;12.70;99.90
56861;DHT22;42744;51.094;3.490;2023-05-15T09:02:19;12.70;99.90
56861;DHT22;42744;51.094;3.490;2023-05-15T09:04:46;12.80;99.90
56861;DHT22;42744;51.094;3.490;2023-05-15T09:07:14;12.80;99.90
56861;DHT22;42744;51.094;3.490;2023-05-15T09:09:42;12.80;99.90
56861;DHT22;42744;51.094;3.490;2023-05-15T09:12:15;12.80;99.90
56861;DHT22;42744;51.094;3.490;2023-05-15T09:14:42;12.70;99.90
56861;DHT22;42744;51.094;3.490;2023-05-15T09:17:11;12.70;99.90
56861;DHT22;42744;51.094;3.490;2023-05-15T09:19:38;12.70;99.90
56861;DHT22;42744;51.094;3.490;2023-05-15T09:24:42;12.80;99.90
56861;DHT22;42744;51.094;3.490;2023-05-15T09:27:09;12.80;99.90
56861;DHT22;42744;51.094;3.490;2023-05-15T09:29:38;12.80;99.90
56861;DHT22;42744;51.094;3.490;2023-05-15T09:32:14;12.80;99.90
56861;DHT22;42744;51.094;3.490;2023-05-15T09:34:42;12.80;99.90
56861;DHT22;42744;51.094;3.490;2023-05-15T09:37:09;12.80;99.90
56861;DHT22;42744;51.094;3.490;2023-05-15T09:39:41;12.80;99.90
56861;DHT22;42744;51.094;3.490;2023-05-15T09:42:09;12.90;99.90
56861;DHT22;42744;51.094;3.490;2023-05-15T09:44:42;12.90;99.90
56861;DHT22;42744;51.094;3.490;2023-05-15T09:47:10;12.80;99.90
56861;DHT22;42744;51.094;3.490;2023-05-15T09:49:36;12.80;99.90
56861;DHT22;42744;51.094;3.490;2023-05-15T09:52:02;12.90;99.90
56861;DHT22;42744;51.094;3.490;2023-05-15T09:54:32;12.90;99.90
56861;DHT22;42744;51.094;3.490;2023-05-15T09:57:07;12.90;99.90
56861;DHT22;42744;51.094;3.490;2023-05-15T09:59:33;12.90;99.90
56861;DHT22;42744;51.094;3.490;2023-05-15T10:01:59;12.90;99.90
56861;DHT22;42744;51.094;3.490;2023-05-15T10:04:26;13.00;99.90
56861;DHT22;42744;51.094;3.490;2023-05-15T10:06:51;12.90;99.90
56861;DHT22;42744;51.094;3.490;2023-05-15T10:09:18;12.90;99.90
56861;DHT22;42744;51.094;3.490;2023-05-15T10:11:49;12.90;99.90
56861;DHT22;42744;51.094;3.490;2023-05-15T10:14:16;12.90;99.90
56861;DHT22;42744;51.094;3.490;2023-05-15T10:16:44;13.00;99.90
56861;DHT22;42744;51.094;3.490;2023-05-15T10:19:13;13.00;99.90
56861;DHT22;42744;51.094;3.490;2023-05-15T10:21:40;13.00;99.90
56861;DHT22;42744;51.094;3.490;2023-05-15T10:24:07;13.00;99.90
56861;DHT22;42744;51.094;3.490;2023-05-15T10:26:41;13.10;99.90
56861;DHT22;42744;51.094;3.490;2023-05-15T10:29:12;13.10;99.90
56861;DHT22;42744;51.094;3.490;2023-05-15T10:31:39;13.10;99.90
56861;DHT22;42744;51.094;3.490;2023-05-15T10:34:06;13.10;99.90
56861;DHT22;42744;51.094;3.490;2023-05-15T10:36:34;13.10;99.90
56861;DHT22;42744;51.094;3.490;2023-05-15T10:39:02;13.10;99.90
56861;DHT22;42744;51.094;3.490;2023-05-15T10:41:29;13.10;99.90
56861;DHT22;42744;51.094;3.490;2023-05-15T10:43:59;13.00;99.90
56861;DHT22;42744;51.094;3.490;2023-05-15T10:46:26;13.00;99.90
56861;DHT22;42744;51.094;3.490;2023-05-15T10:48:53;13.00;99.90
56861;DHT22;42744;51.094;3.490;2023-05-15T10:51:30;12.90;99.90
56861;DHT22;42744;51.094;3.490;2023-05-15T10:53:59;12.90;99.90
56861;DHT22;42744;51.094;3.490;2023-05-15T10:56:28;12.80;99.90
56861;DHT22;42744;51.094;3.490;2023-05-15T10:58:55;12.70;99.90
56861;DHT22;42744;51.094;3.490;2023-05-15T11:01:29;12.50;99.90
56861;DHT22;42744;51.094;3.490;2023-05-15T11:04:14;12.50;99.90
56861;DHT22;42744;51.094;3.490;2023-05-15T11:06:45;12.40;99.90
56861;DHT22;42744;51.094;3.490;2023-05-15T11:14:17;12.40;99.90
56861;DHT22;42744;51.094;3.490;2023-05-15T11:21:57;12.30;99.90
56861;DHT22;42744;51.094;3.490;2023-05-15T11:24:31;12.20;99.90
56861;DHT22;42744;51.094;3.490;2023-05-15T11:27:01;12.10;99.90
56861;DHT22;42744;51.094;3.490;2023-05-15T11:29:29;12.10;99.90
56861;DHT22;42744;51.094;3.490;2023-05-15T11:31:55;12.00;99.90
56861;DHT22;42744;51.094;3.490;2023-05-15T11:34:32;12.00;99.90
56861;DHT22;42744;51.094;3.490;2023-05-15T11:36:59;12.00;99.90
56861;DHT22;42744;51.094;3.490;2023-05-15T11:39:28;11.90;99.90
56861;DHT22;42744;51.094;3.490;2023-05-15T11:41:55;11.90;99.90
56861;DHT22;42744;51.094;3.490;2023-05-15T11:44:22;11.90;99.90
56861;DHT22;42744;51.094;3.490;2023-05-15T11:46:52;11.80;99.90
56861;DHT22;42744;51.094;3.490;2023-05-15T11:49:18;11.90;99.90
56861;DHT22;42744;51.094;3.490;2023-05-15T11:51:47;11.80;99.90
56861;DHT22;42744;51.094;3.490;2023-05-15T11:54:13;11.80;99.90
56861;DHT22;42744;51.094;3.490;2023-05-15T11:56:43;11.90;99.90
56861;DHT22;42744;51.094;3.490;2023-05-15T11:59:12;11.90;99.90
56861;DHT22;42744;51.094;3.490;2023-05-15T12:01:41;11.90;99.90
56861;DHT22;42744;51.094;3.490;2023-05-15T12:04:16;11.90;99.90
56861;DHT22;42744;51.094;3.490;2023-05-15T12:06:43;12.00;99.90
56861;DHT22;42744;51.094;3.490;2023-05-15T12:09:13;12.00;99.90
56861;DHT22;42744;51.094;3.490;2023-05-15T12:11:50;12.00;99.90
56861;DHT22;42744;51.094;3.490;2023-05-15T12:14:16;12.00;99.90
56861;DHT22;42744;51.094;3.490;2023-05-15T12:16:42;12.00;99.90
56861;DHT22;42744;51.094;3.490;2023-05-15T12:19:09;12.00;99.90
56861;DHT22;42744;51.094;3.490;2023-05-15T12:21:36;12.10;99.90
56861;DHT22;42744;51.094;3.490;2023-05-15T12:24:10;12.00;99.90
56861;DHT22;42744;51.094;3.490;2023-05-15T12:26:37;11.90;99.90
56861;DHT22;42744;51.094;3.490;2023-05-15T12:29:04;11.80;99.90
56861;DHT22;42744;51.094;3.490;2023-05-15T12:31:37;11.80;99.90
56861;DHT22;42744;51.094;3.490;2023-05-15T12:34:03;11.80;99.90
56861;DHT22;42744;51.094;3.490;2023-05-15T12:36:29;11.80;99.90
56861;DHT22;42744;51.094;3.490;2023-05-15T12:38:56;11.80;99.90
56861;DHT22;42744;51.094;3.490;2023-05-15T12:41:28;11.80;99.90
56861;DHT22;42744;51.094;3.490;2023-05-15T12:43:54;11.80;99.90
56861;DHT22;42744;51.094;3.490;2023-05-15T12:46:22;11.80;99.90
56861;DHT22;42744;51.094;3.490;2023-05-15T12:48:49;11.80;99.90
56861;DHT22;42744;51.094;3.490;2023-05-15T12:51:16;11.90;99.90
56861;DHT22;42744;51.094;3.490;2023-05-15T12:53:43;12.00;99.90
56861;DHT22;42744;51.094;3.490;2023-05-15T12:56:14;11.90;99.90
56861;DHT22;42744;51.094;3.490;2023-05-15T12:58:40;11.80;99.90
56861;DHT22;42744;51.094;3.490;2023-05-15T13:01:07;11.70;99.90
56861;DHT22;42744;51.094;3.490;2023-05-15T13:03:33;11.60;99.90
56861;DHT22;42744;51.094;3.490;2023-05-15T13:06:01;11.50;99.90
56861;DHT22;42744;51.094;3.490;2023-05-15T13:08:28;11.50;99.90
56861;DHT22;42744;51.094;3.490;2023-05-15T13:10:58;11.50;99.90
56861;DHT22;42744;51.094;3.490;2023-05-15T13:13:45;11.50;99.90
56861;DHT22;42744;51.094;3.490;2023-05-15T13:16:19;11.60;99.90
56861;DHT22;42744;51.094;3.490;2023-05-15T13:18:45;11.70;99.90
56861;DHT22;42744;51.094;3.490;2023-05-15T13:21:11;11.70;99.90
56861;DHT22;42744;51.094;3.490;2023-05-15T13:23:37;11.80;99.90
56861;DHT22;42744;51.094;3.490;2023-05-15T13:26:03;11.80;99.90
56861;DHT22;42744;51.094;3.490;2023-05-15T13:28:29;11.90;99.90
56861;DHT22;42744;51.094;3.490;2023-05-15T13:30:55;11.90;99.90
56861;DHT22;42744;51.094;3.490;2023-05-15T13:33:21;11.90;99.90
56861;DHT22;42744;51.094;3.490;2023-05-15T13:35:47;12.00;99.90
56861;DHT22;42744;51.094;3.490;2023-05-15T13:38:13;12.00;99.90
56861;DHT22;42744;51.094;3.490;2023-05-15T13:40:39;12.00;99.90
56861;DHT22;42744;51.094;3.490;2023-05-15T13:43:05;12.00;99.90
56861;DHT22;42744;51.094;3.490;2023-05-15T13:45:31;12.00;99.90
56861;DHT22;42744;51.094;3.490;2023-05-15T13:47:57;12.00;99.90
56861;DHT22;42744;51.094;3.490;2023-05-15T13:50:23;12.10;99.90
56861;DHT22;42744;51.094;3.490;2023-05-15T13:52:49;12.10;99.90
56861;DHT22;42744;51.094;3.490;2023-05-15T13:55:15;12.00;99.90
56861;DHT22;42744;51.094;3.490;2023-05-15T13:57:42;12.10;99.90
56861;DHT22;42744;51.094;3.490;2023-05-15T14:00:10;12.00;99.90
56861;DHT22;42744;51.094;3.490;2023-05-15T14:02:40;12.10;99.90
56861;DHT22;42744;51.094;3.490;2023-05-15T14:05:08;12.10;99.90
56861;DHT22;42744;51.094;3.490;2023-05-15T14:07:35;12.10;99.90
56861;DHT22;42744;51.094;3.490;2023-05-15T14:10:02;12.10;99.90
56861;DHT22;42744;51.094;3.490;2023-05-15T14:12:28;12.00;99.90
56861;DHT22;42744;51.094;3.490;2023-05-15T14:14:54;12.00;99.90
56861;DHT22;42744;51.094;3.490;2023-05-15T14:17:21;12.00;99.90
56861;DHT22;42744;51.094;3.490;2023-05-15T14:19:48;11.90;99.90
56861;DHT22;42744;51.094;3.490;2023-05-15T14:22:14;11.90;99.90
56861;DHT22;42744;51.094;3.490;2023-05-15T14:24:41;11.90;99.90
56861;DHT22;42744;51.094;3.490;2023-05-15T14:27:07;11.90;99.90
56861;DHT22;42744;51.094;3.490;2023-05-15T14:29:33;12.00;99.90
56861;DHT22;42744;51.094;3.490;2023-05-15T14:31:59;12.00;99.90
56861;DHT22;42744;51.094;3.490;2023-05-15T14:34:29;12.00;99.90
56861;DHT22;42744;51.094;3.490;2023-05-15T14:36:54;12.10;99.90
56861;DHT22;42744;51.094;3.490;2023-05-15T14:39:21;12.20;99.90
56861;DHT22;42744;51.094;3.490;2023-05-15T14:41:47;12.30;99.90
56861;DHT22;42744;51.094;3.490;2023-05-15T14:44:13;12.30;99.90
56861;DHT22;42744;51.094;3.490;2023-05-15T14:46:41;12.40;99.90
56861;DHT22;42744;51.094;3.490;2023-05-15T14:49:07;12.50;99.90
56861;DHT22;42744;51.094;3.490;2023-05-15T14:51:33;12.50;99.90
56861;DHT22;42744;51.094;3.490;2023-05-15T14:53:59;12.40;99.90
56861;DHT22;42744;51.094;3.490;2023-05-15T14:56:25;12.40;99.90
56861;DHT22;42744;51.094;3.490;2023-05-15T14:58:51;12.40;99.90
56861;DHT22;42744;51.094;3.490;2023-05-15T15:01:18;12.30;99.90
56861;DHT22;42744;51.094;3.490;2023-05-15T15:03:44;12.30;99.90
56861;DHT22;42744;51.094;3.490;2023-05-15T15:06:10;12.30;99.90
56861;DHT22;42744;51.094;3.490;2023-05-15T15:08:37;12.20;99.90
56861;DHT22;42744;51.094;3.490;2023-05-15T15:11:03;12.20;99.90
56861;DHT22;42744;51.094;3.490;2023-05-15T15:13:30;12.20;99.90
56861;DHT22;42744;51.094;3.490;2023-05-15T15:15:56;12.20;99.90
56861;DHT22;42744;51.094;3.490;2023-05-15T15:18:22;12.20;99.90
56861;DHT22;42744;51.094;3.490;2023-05-15T15:20:48;12.10;99.90
56861;DHT22;42744;51.094;3.490;2023-05-15T15:23:14;12.10;99.90
56861;DHT22;42744;51.094;3.490;2023-05-15T15:25:40;12.10;99.90
56861;DHT22;42744;51.094;3.490;2023-05-15T15:28:06;12.20;99.90
56861;DHT22;42744;51.094;3.490;2023-05-15T15:30:32;12.10;99.90
56861;DHT22;42744;51.094;3.490;2023-05-15T15:32:59;12.10;99.90
56861;DHT22;42744;51.094;3.490;2023-05-15T15:35:25;12.00;99.90
56861;DHT22;42744;51.094;3.490;2023-05-15T15:37:51;12.00;99.90
56861;DHT22;42744;51.094;3.490;2023-05-15T15:40:17;12.00;99.90
56861;DHT22;42744;51.094;3.490;2023-05-15T15:42:44;11.90;99.90
56861;DHT22;42744;51.094;3.490;2023-05-15T15:45:10;11.90;99.90
56861;DHT22;42744;51.094;3.490;2023-05-15T15:47:36;11.90;99.90
56861;DHT22;42744;51.094;3.490;2023-05-15T15:50:02;11.90;99.90
56861;DHT22;42744;51.094;3.490;2023-05-15T15:52:28;11.90;99.90
56861;DHT22;42744;51.094;3.490;2023-05-15T15:54:54;11.80;99.90
56861;DHT22;42744;51.094;3.490;2023-05-15T15:57:21;11.70;99.90
56861;DHT22;42744;51.094;3.490;2023-05-15T15:59:47;11.80;99.90
56861;DHT22;42744;51.094;3.490;2023-05-15T16:02:14;11.80;99.90
56861;DHT22;42744;51.094;3.490;2023-05-15T16:04:40;11.80;99.90